logo
Rechercher aéroport 
image banner adimage banner adimage banner ad
image banner ad

26CN - Vincent Substation

Situé à Acton, United States

ICAO - 26CN, IATA -

Données fournies par Airmate  

Information générale

Coordonnées: N34°29'12" W118°6'57"
Élévation : 3244 feet MSL.
Variation magnétique : 14° East
Voir autres Aéroports à California

Données opérationnelles

Special qualification required
Heure actuelle UTC:
Heure actuelle locale:
Météo à : KPMD - Palmdale Usaf Plant 42 ( 16 km )
METAR: KPMD 011653Z AUTO 02003KT 10SM CLR 25/02 A2991 RMK AO2 SLP105 T02500022
TAF: KPMD 011140Z 0112/0212 20008KT P6SM SKC FM011400 VRB03KT P6SM SKC FM012000 22010KT P6SM SKC FM012300 24015G20KT P6SM SKC FM020200 23010KT P6SM SKC FM020900 21005KT P6SM SKC
Voir NOTAMs / SUP AIP / TFR affectant cet aéroport [VIEW]
Fréquences de communication: [VIEW]

Pistes:

Coordonnées de l'aéroport

Adresse: Acton United States

Vue satellite de 26CN